Time;durP1;ratioP1;P1;durP2;ratioP2;P2;SDS_P1;SDS_P2;PMS_P1;PMS_P2;Temp;Humidity;BMP_temperature;BMP_pressure;BME280_temperature;BME280_humidity;BME280_pressure;Samples;Min_cycle;Max_cycle;Signal;HPM_P1;HPM_P2
2020/12/20 00:02:25;;;;;;;5.70;3.50;;;6.20;99.90;;;;;;1917534;74;21146;-74
2020/12/20 00:04:51;;;;;;;5.25;3.40;;;6.20;99.90;;;;;;1924360;74;21087;-74
2020/12/20 00:07:17;;;;;;;8.15;3.40;;;6.20;99.90;;;;;;1926755;73;21079;-74
2020/12/20 00:09:43;;;;;;;6.67;3.50;;;6.10;99.90;;;;;;1921248;74;21429;-74
2020/12/20 00:12:09;;;;;;;5.33;3.00;;;6.10;99.90;;;;;;1920283;73;21607;-75
2020/12/20 00:14:36;;;;;;;4.17;2.83;;;6.20;99.90;;;;;;1921269;73;21569;-75
2020/12/20 00:17:02;;;;;;;6.75;2.92;;;6.30;99.90;;;;;;1916335;73;21083;-75
2020/12/20 00:19:28;;;;;;;4.45;3.10;;;6.20;99.90;;;;;;1920454;74;21071;-75
2020/12/20 00:21:54;;;;;;;4.12;2.77;;;6.20;99.90;;;;;;1918143;74;21084;-74
2020/12/20 00:24:20;;;;;;;4.47;2.65;;;6.10;99.90;;;;;;1924191;73;21149;-74
2020/12/20 00:26:47;;;;;;;11.08;3.22;;;6.10;99.90;;;;;;1924061;74;21039;-74
2020/12/20 00:29:13;;;;;;;6.92;3.50;;;6.20;99.90;;;;;;1923422;74;21160;-74
2020/12/20 00:31:39;;;;;;;4.15;2.98;;;6.20;99.90;;;;;;1922711;74;21087;-75
2020/12/20 00:34:05;;;;;;;7.50;3.17;;;6.30;99.90;;;;;;1926182;73;21487;-75
2020/12/20 00:36:31;;;;;;;9.03;3.05;;;6.30;99.90;;;;;;1919636;73;21464;-74
2020/12/20 00:38:57;;;;;;;5.62;3.20;;;6.30;99.90;;;;;;1920876;73;21456;-74
2020/12/20 00:41:23;;;;;;;4.55;2.75;;;6.20;99.90;;;;;;1923694;73;21557;-75
2020/12/20 00:43:49;;;;;;;7.37;3.20;;;6.20;99.90;;;;;;1922383;73;21193;-75
2020/12/20 00:46:15;;;;;;;6.05;2.77;;;6.20;99.90;;;;;;1919144;73;21161;-74
2020/12/20 00:48:42;;;;;;;6.20;3.45;;;6.20;99.90;;;;;;1923097;74;21071;-74
2020/12/20 00:51:09;;;;;;;13.22;3.17;;;6.10;99.90;;;;;;1920806;73;21099;-74
2020/12/20 00:53:35;;;;;;;4.95;2.47;;;6.20;99.90;;;;;;1922927;73;22475;-74
2020/12/20 00:56:01;;;;;;;3.95;2.98;;;6.10;99.90;;;;;;1922554;73;21203;-74
2020/12/20 00:58:27;;;;;;;5.45;3.08;;;6.10;99.90;;;;;;1918761;74;21048;-75
2020/12/20 01:00:53;;;;;;;4.83;3.20;;;6.10;99.90;;;;;;1921443;74;21173;-74
2020/12/20 01:03:19;;;;;;;6.10;3.67;;;6.10;99.90;;;;;;1921222;73;21063;-75
2020/12/20 01:05:45;;;;;;;5.17;3.35;;;6.10;99.90;;;;;;1921982;74;21076;-74
2020/12/20 01:08:12;;;;;;;5.87;3.30;;;6.10;99.90;;;;;;1922872;74;21213;-74
2020/12/20 01:10:38;;;;;;;5.55;3.37;;;6.20;99.90;;;;;;1922963;74;21552;-75
2020/12/20 01:13:04;;;;;;;6.95;3.17;;;6.10;99.90;;;;;;1922421;74;21071;-74
2020/12/20 01:15:30;;;;;;;4.75;3.12;;;6.10;99.90;;;;;;1920699;73;21162;-75
2020/12/20 01:17:56;;;;;;;3.70;2.98;;;6.10;99.90;;;;;;1923081;73;21053;-74
2020/12/20 01:20:22;;;;;;;4.95;3.08;;;6.10;99.90;;;;;;1920882;74;21079;-75
2020/12/20 01:22:48;;;;;;;4.62;2.77;;;6.10;99.90;;;;;;1919340;74;21080;-75
2020/12/20 01:25:15;;;;;;;6.05;3.12;;;6.10;99.90;;;;;;1918616;74;21145;-75
2020/12/20 01:27:41;;;;;;;5.83;3.08;;;6.10;99.90;;;;;;1920054;73;21157;-74
2020/12/20 01:30:07;;;;;;;6.45;3.30;;;6.10;99.90;;;;;;1922025;74;21084;-75
2020/12/20 01:32:33;;;;;;;5.37;3.12;;;6.10;99.90;;;;;;1919147;74;21053;-74
2020/12/20 01:34:59;;;;;;;3.30;2.67;;;6.10;99.90;;;;;;1920527;73;21564;-74
2020/12/20 01:37:25;;;;;;;4.87;3.02;;;6.10;99.90;;;;;;1919264;73;21487;-75
2020/12/20 01:39:51;;;;;;;4.70;2.77;;;6.00;99.90;;;;;;1921356;74;21492;-74
2020/12/20 01:42:17;;;;;;;5.62;2.75;;;6.00;99.90;;;;;;1921422;74;21128;-75
2020/12/20 01:44:44;;;;;;;5.45;2.98;;;6.10;99.90;;;;;;1921475;74;21083;-75
2020/12/20 01:47:10;;;;;;;4.83;3.00;;;6.20;99.90;;;;;;1920714;74;21152;-74
2020/12/20 01:49:36;;;;;;;2.90;2.62;;;6.20;99.90;;;;;;1923193;74;21067;-75
2020/12/20 01:52:02;;;;;;;6.00;2.85;;;6.20;99.90;;;;;;1921428;74;21149;-74
2020/12/20 01:54:28;;;;;;;6.05;3.35;;;6.20;99.90;;;;;;1920936;74;21071;-74
2020/12/20 01:56:54;;;;;;;5.25;2.87;;;6.20;99.90;;;;;;1918325;73;21160;-74
2020/12/20 01:59:20;;;;;;;5.40;3.12;;;6.20;99.90;;;;;;1922079;73;21134;-74
2020/12/20 02:01:46;;;;;;;7.12;3.22;;;6.20;99.90;;;;;;1923100;73;21562;-74
2020/12/20 02:04:12;;;;;;;4.47;2.87;;;6.10;99.90;;;;;;1921936;74;21447;-75
2020/12/20 02:06:39;;;;;;;4.42;2.80;;;6.00;99.90;;;;;;1918953;74;21499;-74
2020/12/20 02:09:05;;;;;;;5.42;2.85;;;6.00;99.90;;;;;;1913863;73;21084;-74
2020/12/20 02:11:31;;;;;;;6.20;2.92;;;6.10;99.90;;;;;;1919768;74;21191;-74
2020/12/20 02:13:57;;;;;;;5.62;3.40;;;6.20;99.90;;;;;;1918678;73;21193;-74
2020/12/20 02:16:23;;;;;;;4.40;3.08;;;6.10;99.90;;;;;;1922806;74;21104;-74
2020/12/20 02:18:49;;;;;;;6.25;3.10;;;6.10;99.90;;;;;;1923846;73;21145;-74
2020/12/20 02:21:15;;;;;;;3.92;2.60;;;6.20;99.90;;;;;;1923310;74;21080;-74
2020/12/20 02:23:41;;;;;;;5.80;3.45;;;6.20;99.90;;;;;;1919420;74;21080;-75
2020/12/20 02:26:08;;;;;;;3.35;2.27;;;6.20;99.90;;;;;;1919628;74;21194;-74
2020/12/20 02:28:34;;;;;;;5.30;2.65;;;6.20;99.90;;;;;;1920193;74;21080;-74
2020/12/20 02:31:00;;;;;;;4.50;2.92;;;6.10;99.90;;;;;;1919920;73;21048;-73
2020/12/20 02:33:26;;;;;;;4.87;2.80;;;6.10;99.90;;;;;;1922415;73;21076;-73
2020/12/20 02:35:52;;;;;;;5.33;3.12;;;6.10;99.90;;;;;;1921823;74;21091;-73
2020/12/20 02:38:18;;;;;;;4.00;2.45;;;6.10;99.90;;;;;;1925488;73;21083;-73
2020/12/20 02:40:44;;;;;;;3.20;2.65;;;6.10;99.90;;;;;;1923119;74;21051;-73
2020/12/20 02:43:10;;;;;;;3.85;2.42;;;6.10;99.90;;;;;;1919737;73;21083;-73
2020/12/20 02:45:37;;;;;;;4.60;2.60;;;6.10;99.90;;;;;;1919633;74;21072;-73
2020/12/20 02:48:03;;;;;;;5.22;3.00;;;6.00;99.90;;;;;;1920884;74;21052;-73
2020/12/20 02:50:29;;;;;;;4.10;2.58;;;6.00;99.90;;;;;;1920439;73;21153;-73
2020/12/20 02:52:55;;;;;;;5.78;3.15;;;6.00;99.90;;;;;;1922909;74;21075;-73
2020/12/20 02:55:21;;;;;;;6.05;2.75;;;6.00;99.90;;;;;;1923743;73;21152;-73
2020/12/20 02:57:47;;;;;;;5.92;2.95;;;6.00;99.90;;;;;;1919701;74;21150;-73
2020/12/20 03:00:13;;;;;;;7.37;3.00;;;6.00;99.90;;;;;;1922155;74;21084;-73
2020/12/20 03:02:39;;;;;;;3.75;3.00;;;6.00;99.90;;;;;;1918974;74;21171;-73
2020/12/20 03:05:06;;;;;;;5.47;2.65;;;6.10;99.90;;;;;;1921195;73;21088;-73
2020/12/20 03:07:32;;;;;;;5.55;2.87;;;6.10;99.90;;;;;;1923704;73;21519;-73
2020/12/20 03:09:58;;;;;;;5.28;3.40;;;6.00;99.90;;;;;;1919350;73;21569;-73
2020/12/20 03:12:24;;;;;;;6.40;3.00;;;6.00;99.90;;;;;;1919172;73;21467;-73
2020/12/20 03:14:50;;;;;;;3.40;2.67;;;6.10;99.90;;;;;;1918520;74;21511;-73
2020/12/20 03:17:16;;;;;;;5.87;2.87;;;6.00;99.90;;;;;;1923714;73;21145;-73
2020/12/20 03:19:42;;;;;;;5.60;3.33;;;6.00;99.90;;;;;;1917811;73;21162;-73
2020/12/20 03:22:08;;;;;;;6.00;3.00;;;6.10;99.90;;;;;;1920571;74;21066;-73
2020/12/20 03:24:35;;;;;;;5.03;2.85;;;6.10;99.90;;;;;;1916332;74;21075;-73
2020/12/20 03:27:01;;;;;;;5.67;3.02;;;6.20;99.90;;;;;;1922238;74;21198;-73
2020/12/20 03:29:27;;;;;;;4.05;2.72;;;6.10;99.90;;;;;;1916257;73;21092;-73
2020/12/20 03:31:53;;;;;;;4.05;3.10;;;6.10;99.90;;;;;;1920230;73;21142;-73
2020/12/20 03:34:19;;;;;;;6.78;2.92;;;6.10;99.90;;;;;;1925578;74;21083;-73
2020/12/20 03:36:45;;;;;;;3.40;2.72;;;6.10;99.90;;;;;;1916613;74;21075;-73
2020/12/20 03:39:11;;;;;;;5.72;2.90;;;6.20;99.90;;;;;;1919913;74;21153;-73
2020/12/20 03:41:37;;;;;;;4.58;2.50;;;6.10;99.90;;;;;;1919659;74;21135;-73
2020/12/20 03:44:03;;;;;;;5.97;2.80;;;6.10;99.90;;;;;;1917909;73;21052;-73
2020/12/20 03:46:30;;;;;;;4.25;2.77;;;6.10;99.90;;;;;;1923010;73;21161;-73
2020/12/20 03:48:56;;;;;;;4.47;2.77;;;6.10;99.90;;;;;;1917987;73;21479;-73
2020/12/20 03:51:22;;;;;;;5.25;3.22;;;6.00;99.90;;;;;;1918158;74;21503;-73
2020/12/20 03:53:48;;;;;;;5.95;3.12;;;6.00;99.90;;;;;;1923670;74;21569;-73
2020/12/20 03:56:14;;;;;;;7.83;2.80;;;6.00;99.90;;;;;;1923291;74;21145;-73
2020/12/20 03:58:40;;;;;;;3.95;2.80;;;6.10;99.90;;;;;;1922193;74;21046;-73
2020/12/20 04:01:06;;;;;;;6.05;2.72;;;6.10;99.90;;;;;;1921311;74;21141;-73
2020/12/20 04:03:32;;;;;;;5.67;2.62;;;6.10;99.90;;;;;;1925266;73;21063;-73
2020/12/20 04:05:59;;;;;;;6.15;3.00;;;6.00;99.90;;;;;;1919853;74;21154;-73
2020/12/20 04:08:25;;;;;;;5.33;3.50;;;5.90;99.90;;;;;;1922379;73;21076;-73
2020/12/20 04:10:51;;;;;;;4.20;2.90;;;6.00;99.90;;;;;;1917569;74;21076;-73
2020/12/20 04:13:17;;;;;;;4.22;2.70;;;6.00;99.90;;;;;;1919364;73;21129;-73
2020/12/20 04:15:43;;;;;;;6.40;2.62;;;6.10;99.90;;;;;;1925313;73;21071;-73
2020/12/20 04:18:09;;;;;;;3.90;2.58;;;6.00;99.90;;;;;;1921141;74;21084;-73
2020/12/20 04:20:35;;;;;;;5.58;3.05;;;6.00;99.90;;;;;;1926855;73;21307;-73
2020/12/20 04:23:01;;;;;;;2.83;2.50;;;6.00;99.90;;;;;;1917336;74;21147;-73
2020/12/20 04:25:28;;;;;;;7.08;3.15;;;6.10;99.90;;;;;;1915933;74;21040;-73
2020/12/20 04:27:54;;;;;;;4.17;2.47;;;6.10;99.90;;;;;;1916758;73;21598;-73
2020/12/20 04:30:20;;;;;;;3.15;2.33;;;6.10;99.90;;;;;;1919083;74;21452;-73
2020/12/20 04:32:46;;;;;;;3.45;2.60;;;6.00;99.90;;;;;;1923439;73;21561;-73
2020/12/20 04:35:12;;;;;;;4.20;2.47;;;6.00;99.90;;;;;;1923944;73;21085;-73
2020/12/20 04:37:38;;;;;;;3.37;2.37;;;6.10;99.90;;;;;;1921518;74;21068;-73
2020/12/20 04:40:04;;;;;;;4.20;2.02;;;6.00;99.90;;;;;;1920782;73;21122;-73
2020/12/20 04:42:30;;;;;;;9.93;2.67;;;6.00;99.90;;;;;;1923064;73;21133;-73
2020/12/20 04:44:56;;;;;;;4.90;2.58;;;6.00;99.90;;;;;;1919107;73;21206;-73
2020/12/20 04:47:23;;;;;;;3.83;2.20;;;6.00;99.90;;;;;;1916272;74;21146;-73
2020/12/20 04:49:49;;;;;;;3.58;2.90;;;5.90;99.90;;;;;;1921584;73;21072;-72
2020/12/20 04:52:15;;;;;;;5.50;3.20;;;5.90;99.90;;;;;;1915383;73;21287;-73
2020/12/20 04:54:41;;;;;;;4.22;2.55;;;5.90;99.90;;;;;;1924385;74;21044;-73
2020/12/20 04:57:07;;;;;;;5.40;2.95;;;5.90;99.90;;;;;;1922328;74;21162;-74
2020/12/20 04:59:33;;;;;;;3.98;2.95;;;5.90;99.90;;;;;;1920575;74;21154;-73
2020/12/20 05:01:59;;;;;;;3.47;2.55;;;5.90;99.90;;;;;;1920812;73;21087;-73
2020/12/20 05:04:25;;;;;;;5.62;3.02;;;5.90;99.90;;;;;;1924168;73;21080;-73
2020/12/20 05:06:52;;;;;;;6.55;2.20;;;5.90;99.90;;;;;;1918156;74;21552;-73
2020/12/20 05:09:18;;;;;;;4.95;3.20;;;5.90;99.90;;;;;;1919142;74;21682;-73
2020/12/20 05:11:44;;;;;;;5.55;2.87;;;5.80;99.90;;;;;;1920168;73;21487;-73
2020/12/20 05:14:10;;;;;;;3.15;2.37;;;5.90;99.90;;;;;;1924438;73;21087;-73
2020/12/20 05:16:37;;;;;;;5.75;2.50;;;5.80;99.90;;;;;;1925110;74;21133;-75
2020/12/20 05:19:03;;;;;;;2.90;2.47;;;5.80;99.90;;;;;;1923549;74;21560;-75
2020/12/20 05:21:29;;;;;;;5.20;2.42;;;5.80;99.90;;;;;;1922422;74;21552;-73
2020/12/20 05:23:56;;;;;;;5.90;2.52;;;5.80;99.90;;;;;;1894031;73;21082;-73
2020/12/20 05:26:22;;;;;;;4.33;2.52;;;5.70;99.90;;;;;;1918788;73;21084;-73
2020/12/20 05:28:48;;;;;;;4.65;3.08;;;5.80;99.90;;;;;;1920954;74;21048;-73
2020/12/20 05:31:14;;;;;;;9.75;2.98;;;5.80;99.90;;;;;;1924063;74;21083;-74
2020/12/20 05:33:40;;;;;;;3.33;2.70;;;5.70;99.90;;;;;;1920787;74;21059;-74
2020/12/20 05:36:06;;;;;;;3.62;2.47;;;5.70;99.90;;;;;;1920197;74;21153;-74
2020/12/20 05:38:32;;;;;;;3.60;2.40;;;5.70;99.90;;;;;;1922450;73;21161;-74
2020/12/20 05:40:58;;;;;;;4.62;2.80;;;5.70;99.90;;;;;;1918808;73;21495;-74
2020/12/20 05:43:24;;;;;;;7.62;3.15;;;5.80;99.90;;;;;;1919486;73;21566;-73
2020/12/20 05:45:51;;;;;;;2.85;2.08;;;5.80;99.90;;;;;;1918298;74;21484;-74
2020/12/20 05:48:17;;;;;;;3.92;2.70;;;5.80;99.90;;;;;;1924376;73;21080;-74
2020/12/20 05:50:43;;;;;;;3.12;2.40;;;5.90;99.90;;;;;;1923829;73;21072;-74
2020/12/20 05:53:09;;;;;;;3.30;2.05;;;5.90;99.90;;;;;;1924844;74;21080;-73
2020/12/20 05:55:35;;;;;;;5.97;2.42;;;6.00;99.90;;;;;;1919850;73;21079;-73
2020/12/20 05:58:01;;;;;;;5.47;2.77;;;5.90;99.90;;;;;;1924790;74;21036;-73
2020/12/20 06:00:27;;;;;;;6.62;2.50;;;5.80;99.90;;;;;;1923585;73;21067;-73
2020/12/20 06:02:53;;;;;;;3.65;2.47;;;5.90;99.90;;;;;;1921134;73;21079;-73
2020/12/20 06:05:20;;;;;;;4.00;2.75;;;5.80;99.90;;;;;;1920473;73;21194;-73
2020/12/20 06:07:46;;;;;;;5.67;2.80;;;5.80;99.90;;;;;;1918820;73;21067;-73
2020/12/20 06:10:12;;;;;;;3.55;2.62;;;5.70;99.90;;;;;;1912290;73;21048;-73
2020/12/20 06:12:38;;;;;;;4.72;3.02;;;5.70;99.90;;;;;;1922200;73;21171;-73
2020/12/20 06:15:04;;;;;;;4.97;2.72;;;5.80;99.90;;;;;;1922367;74;21079;-73
2020/12/20 06:17:30;;;;;;;3.25;2.35;;;5.70;99.90;;;;;;1917161;74;21083;-73
2020/12/20 06:19:56;;;;;;;5.33;2.62;;;5.60;99.90;;;;;;1922711;73;21628;-73
2020/12/20 06:22:22;;;;;;;4.87;2.60;;;5.60;99.90;;;;;;1923623;74;21487;-73
2020/12/20 06:24:48;;;;;;;3.40;2.55;;;5.60;99.90;;;;;;1920954;73;21441;-73
2020/12/20 06:27:15;;;;;;;3.87;2.87;;;5.70;99.90;;;;;;1919736;73;21074;-73
2020/12/20 06:29:41;;;;;;;2.65;2.40;;;5.70;99.90;;;;;;1922859;74;21076;-73
2020/12/20 06:32:07;;;;;;;4.12;2.90;;;5.70;99.90;;;;;;1922987;73;21067;-74
2020/12/20 06:34:33;;;;;;;5.15;2.65;;;5.80;99.90;;;;;;1918299;73;21080;-74
2020/12/20 06:36:59;;;;;;;4.28;2.62;;;5.80;99.90;;;;;;1922935;74;21068;-73
2020/12/20 06:39:25;;;;;;;4.47;3.25;;;5.70;99.90;;;;;;1920813;74;21049;-73
2020/12/20 06:41:51;;;;;;;5.33;2.62;;;5.70;99.90;;;;;;1921722;74;21141;-73
2020/12/20 06:44:17;;;;;;;7.33;3.12;;;5.70;99.90;;;;;;1919621;74;21161;-73
2020/12/20 06:46:44;;;;;;;5.97;2.80;;;5.70;99.90;;;;;;1918987;73;21083;-74
2020/12/20 06:49:10;;;;;;;3.95;2.60;;;5.70;99.90;;;;;;1919642;74;21080;-73
2020/12/20 06:51:36;;;;;;;9.48;2.80;;;5.70;99.90;;;;;;1924773;73;21075;-74
2020/12/20 06:54:02;;;;;;;4.42;2.85;;;5.80;99.90;;;;;;1923244;73;21048;-73
2020/12/20 06:56:29;;;;;;;6.00;2.67;;;5.60;99.90;;;;;;1922642;74;21154;-74
2020/12/20 06:58:56;;;;;;;4.40;2.45;;;5.60;99.90;;;;;;1920735;74;21139;-74
2020/12/20 07:01:22;;;;;;;3.50;2.52;;;5.60;99.90;;;;;;1918088;74;21059;-77
2020/12/20 07:03:48;;;;;;;3.72;2.62;;;5.60;99.90;;;;;;1919282;73;21149;-77
2020/12/20 07:06:14;;;;;;;3.20;2.90;;;5.60;99.90;;;;;;1920983;74;21075;-76
2020/12/20 07:08:40;;;;;;;3.85;2.40;;;5.60;99.90;;;;;;1916983;74;21053;-79
2020/12/20 07:11:08;;;;;;;7.15;2.60;;;5.50;99.90;;;;;;1919006;73;21151;-79
2020/12/20 07:13:34;;;;;;;12.45;3.27;;;5.60;99.90;;;;;;1922459;74;21153;-78
2020/12/20 07:16:00;;;;;;;3.47;2.60;;;5.70;99.90;;;;;;1920022;73;21272;-78
2020/12/20 07:18:26;;;;;;;10.25;2.98;;;5.70;99.90;;;;;;1924138;74;21079;-79
2020/12/20 07:20:52;;;;;;;4.53;2.35;;;5.80;99.90;;;;;;1921601;73;21087;-79
2020/12/20 07:23:19;;;;;;;4.00;3.02;;;5.70;99.90;;;;;;1925638;74;21048;-79
2020/12/20 07:25:45;;;;;;;7.25;3.33;;;5.70;99.90;;;;;;1922745;74;21220;-79
2020/12/20 07:28:11;;;;;;;4.45;3.00;;;5.70;99.90;;;;;;1924687;74;21459;-79
2020/12/20 07:30:37;;;;;;;11.88;2.77;;;5.70;99.90;;;;;;1920453;74;21483;-79
2020/12/20 07:33:03;;;;;;;4.00;2.77;;;5.70;99.90;;;;;;1922353;74;21477;-75
2020/12/20 07:35:29;;;;;;;4.05;2.58;;;5.80;99.90;;;;;;1920267;74;21449;-76
2020/12/20 07:37:56;;;;;;;5.28;3.00;;;5.80;99.90;;;;;;1921242;73;21071;-75
2020/12/20 07:40:22;;;;;;;5.40;2.83;;;5.90;99.90;;;;;;1920414;73;21095;-81
2020/12/20 07:42:48;;;;;;;5.20;3.15;;;6.00;99.90;;;;;;1917871;74;21145;-76
2020/12/20 07:45:15;;;;;;;7.60;3.00;;;5.80;99.90;;;;;;1917959;74;21095;-74
2020/12/20 07:47:42;;;;;;;4.20;2.90;;;5.80;99.90;;;;;;1914711;73;21080;-75
2020/12/20 07:50:08;;;;;;;4.05;2.92;;;5.90;99.90;;;;;;1921019;74;21157;-82
2020/12/20 07:52:34;;;;;;;6.97;2.70;;;6.00;99.90;;;;;;1925887;74;21170;-80
2020/12/20 07:55:00;;;;;;;2.37;2.17;;;6.00;99.90;;;;;;1922941;74;21079;-79
2020/12/20 07:57:26;;;;;;;11.15;3.08;;;6.10;99.90;;;;;;1917561;73;21041;-78
2020/12/20 07:59:53;;;;;;;3.20;2.42;;;6.10;99.90;;;;;;1921303;74;21092;-76
2020/12/20 08:02:19;;;;;;;3.87;2.20;;;6.10;99.90;;;;;;1920006;74;21476;-78
2020/12/20 08:04:45;;;;;;;4.87;2.92;;;6.10;99.90;;;;;;1923623;73;21468;-77
2020/12/20 08:07:11;;;;;;;3.75;2.50;;;6.20;99.90;;;;;;1920689;73;21472;-77
2020/12/20 08:09:37;;;;;;;7.37;2.98;;;6.30;99.90;;;;;;1925814;74;21481;-77
2020/12/20 08:12:03;;;;;;;5.90;3.12;;;6.30;99.90;;;;;;1924483;73;21126;-76
2020/12/20 08:14:29;;;;;;;6.72;4.00;;;6.20;99.90;;;;;;1922130;73;21059;-77
2020/12/20 08:16:56;;;;;;;6.40;3.58;;;6.20;99.90;;;;;;1920887;74;21072;-77
2020/12/20 08:19:22;;;;;;;5.12;3.17;;;6.20;99.90;;;;;;1919868;73;21213;-78
2020/12/20 08:21:49;;;;;;;6.30;3.00;;;6.30;99.90;;;;;;1917575;74;21158;-77
2020/12/20 08:24:15;;;;;;;9.45;2.98;;;6.20;99.90;;;;;;1921936;74;21146;-77
2020/12/20 08:26:41;;;;;;;4.70;3.12;;;6.20;99.90;;;;;;1923169;74;21198;-77
2020/12/20 08:29:07;;;;;;;4.97;2.90;;;6.40;99.90;;;;;;1922445;74;21088;-77
2020/12/20 08:31:33;;;;;;;5.83;3.22;;;6.40;99.90;;;;;;1916730;74;21049;-78
2020/12/20 08:33:59;;;;;;;5.95;3.10;;;6.50;99.90;;;;;;1920848;74;21079;-77
2020/12/20 08:36:25;;;;;;;8.73;3.25;;;6.60;99.90;;;;;;1925294;73;21071;-79
2020/12/20 08:38:51;;;;;;;7.40;3.30;;;6.60;99.90;;;;;;1917620;74;21071;-79
2020/12/20 08:41:18;;;;;;;3.77;2.87;;;6.70;99.90;;;;;;1923585;74;21148;-78
2020/12/20 08:43:44;;;;;;;5.62;3.33;;;6.70;99.90;;;;;;1923264;73;21071;-79
2020/12/20 08:46:10;;;;;;;3.35;2.50;;;6.70;99.90;;;;;;1918454;74;21053;-79
2020/12/20 08:48:36;;;;;;;5.05;3.20;;;6.70;99.90;;;;;;1920305;74;21549;-76
2020/12/20 08:51:02;;;;;;;5.53;3.35;;;6.90;99.90;;;;;;1917671;73;21488;-76
2020/12/20 08:53:28;;;;;;;5.20;3.62;;;6.80;99.90;;;;;;1922814;73;21613;-75
2020/12/20 08:55:54;;;;;;;5.28;3.05;;;7.00;99.90;;;;;;1922845;73;21558;-76
2020/12/20 08:58:20;;;;;;;8.93;3.87;;;7.20;99.90;;;;;;1921057;73;21145;-78
2020/12/20 09:00:47;;;;;;;15.55;3.50;;;7.30;99.90;;;;;;1919472;73;21079;-75
2020/12/20 09:03:13;;;;;;;4.22;2.75;;;7.40;99.90;;;;;;1920507;73;21079;-76
2020/12/20 09:05:39;;;;;;;5.30;3.27;;;7.40;99.90;;;;;;1920424;73;21076;-76
2020/12/20 09:08:05;;;;;;;6.08;3.15;;;7.40;99.90;;;;;;1922515;74;21083;-75
2020/12/20 09:10:33;;;;;;;5.25;2.80;;;7.40;99.90;;;;;;1920965;73;21067;-79
2020/12/20 09:12:59;;;;;;;7.22;3.40;;;7.20;99.90;;;;;;1922620;74;21173;-77
2020/12/20 09:15:25;;;;;;;6.17;3.08;;;7.40;99.90;;;;;;1922053;73;21079;-77
2020/12/20 09:17:51;;;;;;;7.55;3.10;;;7.40;99.90;;;;;;1924332;74;21087;-78
2020/12/20 09:20:17;;;;;;;6.37;3.10;;;7.40;99.90;;;;;;1894460;74;21251;-87
2020/12/20 09:22:43;;;;;;;8.40;3.47;;;7.60;99.90;;;;;;1919966;73;21088;-76
2020/12/20 09:25:09;;;;;;;4.97;2.92;;;7.90;99.90;;;;;;1921008;74;21433;-78
2020/12/20 09:27:36;;;;;;;5.10;2.83;;;8.10;99.90;;;;;;1923405;74;21537;-82
2020/12/20 09:30:03;;;;;;;5.15;3.30;;;8.30;99.90;;;;;;1921664;74;21504;-77
2020/12/20 09:32:29;;;;;;;4.25;2.87;;;8.50;99.90;;;;;;1918797;73;21283;-76
2020/12/20 09:34:55;;;;;;;7.25;3.37;;;8.80;99.90;;;;;;1920775;73;21205;-76
2020/12/20 09:37:21;;;;;;;5.75;3.22;;;8.30;99.90;;;;;;1922538;73;21151;-77
2020/12/20 09:39:47;;;;;;;4.22;2.90;;;8.30;99.90;;;;;;1923010;74;21081;-76
2020/12/20 09:42:13;;;;;;;6.90;3.17;;;8.10;99.90;;;;;;1924094;74;21032;-79
2020/12/20 09:44:39;;;;;;;5.45;2.83;;;8.20;99.90;;;;;;1921202;73;21048;-77
2020/12/20 09:47:06;;;;;;;4.12;3.00;;;8.60;99.90;;;;;;1921311;73;21145;-78
2020/12/20 09:49:32;;;;;;;9.85;3.00;;;8.90;99.90;;;;;;1913451;73;21209;-80
2020/12/20 09:51:58;;;;;;;7.08;3.33;;;9.00;99.90;;;;;;1920140;74;21145;-83
2020/12/20 09:54:24;;;;;;;6.90;3.42;;;9.40;99.90;;;;;;1922662;74;21084;-80
2020/12/20 09:56:50;;;;;;;5.62;3.42;;;9.60;99.90;;;;;;1920567;73;21032;-81
2020/12/20 09:59:16;;;;;;;5.87;3.35;;;9.00;99.90;;;;;;1925509;73;21124;-83
2020/12/20 10:01:44;;;;;;;4.40;3.08;;;9.30;99.90;;;;;;1916609;74;21092;-80
2020/12/20 10:04:10;;;;;;;7.17;3.90;;;9.20;99.90;;;;;;1922712;73;21076;-83
2020/12/20 10:06:36;;;;;;;5.80;3.10;;;9.20;99.90;;;;;;1923797;73;21087;-83
2020/12/20 10:09:02;;;;;;;8.00;3.17;;;9.50;99.90;;;;;;1921055;73;21087;-84
2020/12/20 10:11:28;;;;;;;7.50;3.60;;;9.20;99.90;;;;;;1919360;73;21085;-84
2020/12/20 10:13:54;;;;;;;5.28;3.00;;;9.40;99.90;;;;;;1917774;74;21565;-84
2020/12/20 10:16:21;;;;;;;6.03;3.20;;;8.90;99.90;;;;;;1924157;73;21476;-78
2020/12/20 10:18:47;;;;;;;5.92;3.20;;;8.90;99.90;;;;;;1924948;74;21041;-80
2020/12/20 10:21:13;;;;;;;8.78;3.45;;;8.80;99.90;;;;;;1919481;73;21079;-75
2020/12/20 10:23:39;;;;;;;6.05;3.00;;;9.00;99.90;;;;;;1921174;74;21146;-76
2020/12/20 10:26:05;;;;;;;7.30;3.08;;;9.10;99.90;;;;;;1923229;74;21102;-81
2020/12/20 10:28:31;;;;;;;5.65;3.30;;;9.10;99.90;;;;;;1909483;74;21067;-78
2020/12/20 10:30:57;;;;;;;5.15;2.90;;;8.90;99.90;;;;;;1922056;73;21060;-75
2020/12/20 10:33:23;;;;;;;5.28;2.98;;;9.00;99.90;;;;;;1920756;74;21099;-73
2020/12/20 10:35:50;;;;;;;4.85;2.72;;;8.90;99.90;;;;;;1918021;74;21076;-79
2020/12/20 10:38:17;;;;;;;5.80;3.47;;;9.20;99.90;;;;;;1920701;73;21086;-79
2020/12/20 10:40:43;;;;;;;7.70;3.00;;;9.10;99.90;;;;;;1919975;73;21111;-78
2020/12/20 10:43:09;;;;;;;5.67;3.02;;;9.10;99.90;;;;;;1918998;73;21080;-78
2020/12/20 10:45:35;;;;;;;5.42;2.70;;;9.00;99.90;;;;;;1917220;73;21206;-79
2020/12/20 10:48:01;;;;;;;6.42;2.80;;;9.00;99.90;;;;;;1918401;74;21068;-78
2020/12/20 10:50:27;;;;;;;4.47;2.98;;;9.10;99.90;;;;;;1919278;73;21126;-78
2020/12/20 10:52:53;;;;;;;4.30;2.72;;;9.10;99.90;;;;;;1916365;73;21142;-78
2020/12/20 10:55:20;;;;;;;6.72;3.55;;;9.00;99.90;;;;;;1921642;74;21178;-78
2020/12/20 10:57:46;;;;;;;5.60;3.20;;;9.20;99.90;;;;;;1920875;73;21087;-80
2020/12/20 11:00:13;;;;;;;5.37;3.20;;;9.40;99.90;;;;;;1923135;73;21598;-80
2020/12/20 11:02:39;;;;;;;5.42;2.77;;;9.40;99.90;;;;;;1917963;74;21157;-79
2020/12/20 11:05:05;;;;;;;5.42;3.00;;;9.40;99.90;;;;;;1924952;73;21160;-83
2020/12/20 11:07:31;;;;;;;5.30;2.90;;;9.40;99.90;;;;;;1922522;74;21088;-80
2020/12/20 11:09:58;;;;;;;4.83;2.95;;;9.50;99.90;;;;;;1921344;74;21052;-80
2020/12/20 11:12:24;;;;;;;6.90;3.17;;;9.50;99.90;;;;;;1924023;73;21083;-85
2020/12/20 11:14:50;;;;;;;9.50;4.92;;;9.40;99.90;;;;;;1919408;73;21487;-84
2020/12/20 11:17:16;;;;;;;6.97;3.50;;;9.50;99.90;;;;;;1920544;74;21467;-82
2020/12/20 11:19:42;;;;;;;9.93;3.08;;;9.60;99.90;;;;;;1924477;74;21553;-83
2020/12/20 11:22:08;;;;;;;3.87;2.72;;;9.70;99.90;;;;;;1922627;73;21089;-84
2020/12/20 11:24:36;;;;;;;6.47;3.52;;;9.80;99.90;;;;;;1915186;73;21075;-86
2020/12/20 11:27:03;;;;;;;5.22;3.02;;;10.10;99.90;;;;;;1920707;74;21464;-84
2020/12/20 11:29:29;;;;;;;5.00;2.70;;;10.30;99.90;;;;;;1921232;74;21079;-83
2020/12/20 11:31:55;;;;;;;4.53;2.85;;;10.30;99.90;;;;;;1923707;74;21052;-83
2020/12/20 11:34:25;;;;;;;5.40;3.08;;;10.50;99.90;;;;;;1921058;74;21080;-84
2020/12/20 11:36:53;;;;;;;4.97;2.80;;;10.70;99.90;;;;;;1912906;73;21084;-85
2020/12/20 11:39:22;;;;;;;8.25;3.37;;;10.80;99.90;;;;;;1920999;74;21597;-82
2020/12/20 11:41:46;;;;;;;3.45;2.40;;;10.80;99.90;;;;;;1921434;73;21158;-80
2020/12/20 11:44:13;;;;;;;4.33;2.77;;;10.60;99.90;;;;;;1924034;73;21048;-84
2020/12/20 11:46:39;;;;;;;6.00;2.95;;;10.50;99.90;;;;;;1921420;74;21067;-83
2020/12/20 11:49:06;;;;;;;4.87;2.65;;;10.30;99.90;;;;;;1919600;73;21264;-81
2020/12/20 11:51:32;;;;;;;6.03;2.90;;;10.30;99.90;;;;;;1920675;73;21158;-80
2020/12/20 11:53:58;;;;;;;3.90;2.55;;;10.10;99.90;;;;;;1920787;73;21049;-79
2020/12/20 11:56:24;;;;;;;5.58;3.45;;;10.20;99.90;;;;;;1920133;74;21178;-80
2020/12/20 11:58:50;;;;;;;8.68;3.20;;;10.20;99.90;;;;;;1917577;73;21076;-80
2020/12/20 12:01:16;;;;;;;3.15;2.42;;;10.30;99.90;;;;;;1920590;73;21072;-79
2020/12/20 12:03:42;;;;;;;7.40;3.50;;;10.20;99.90;;;;;;1920553;74;21147;-78
2020/12/20 12:06:09;;;;;;;5.87;3.27;;;10.20;99.90;;;;;;1921464;74;21084;-79
2020/12/20 12:08:35;;;;;;;7.22;3.25;;;10.20;99.90;;;;;;1923338;74;21121;-79
2020/12/20 12:11:01;;;;;;;9.40;3.77;;;10.10;99.90;;;;;;1919865;74;21173;-79
2020/12/20 12:13:28;;;;;;;5.30;3.15;;;10.00;99.90;;;;;;1923232;73;21128;-82
2020/12/20 12:15:54;;;;;;;5.45;3.42;;;10.10;99.90;;;;;;1918768;73;21091;-80
2020/12/20 12:18:20;;;;;;;4.65;2.95;;;10.20;99.90;;;;;;1920172;74;21188;-83
2020/12/20 12:20:46;;;;;;;6.00;3.62;;;10.30;99.90;;;;;;1918261;74;21291;-80
2020/12/20 12:23:12;;;;;;;6.12;3.22;;;10.40;99.90;;;;;;1920631;74;21107;-83
2020/12/20 12:25:38;;;;;;;5.15;3.12;;;10.20;99.90;;;;;;1922257;74;21161;-82
2020/12/20 12:28:04;;;;;;;6.25;3.20;;;10.30;99.90;;;;;;1916922;73;21106;-80
2020/12/20 12:30:30;;;;;;;4.90;3.15;;;10.40;99.90;;;;;;1923214;73;21080;-81
2020/12/20 12:32:57;;;;;;;5.90;3.20;;;10.30;99.90;;;;;;1921307;74;21049;-78
2020/12/20 12:35:23;;;;;;;4.40;2.85;;;10.40;99.90;;;;;;1922250;74;21119;-76
2020/12/20 12:37:50;;;;;;;5.72;3.60;;;10.50;99.90;;;;;;1912358;73;21210;-77
2020/12/20 12:40:17;;;;;;;10.63;3.33;;;10.30;99.90;;;;;;1913336;73;21088;-82
2020/12/20 12:42:43;;;;;;;8.48;3.20;;;10.40;99.90;;;;;;1915460;73;21244;-78
2020/12/20 12:45:09;;;;;;;9.98;3.83;;;10.40;99.90;;;;;;1918434;73;21123;-75
2020/12/20 12:47:35;;;;;;;8.03;3.92;;;10.30;99.90;;;;;;1923680;74;21087;-78
2020/12/20 12:50:01;;;;;;;7.28;3.58;;;10.30;99.90;;;;;;1918566;73;21071;-79